createdAt,value
2023-03-02T00:03:30.000Z,991.87
2023-03-02T00:08:24.000Z,991.92
2023-03-02T00:13:19.000Z,991.95
2023-03-02T00:18:13.000Z,991.89
2023-03-02T00:23:07.000Z,991.98
2023-03-02T00:28:01.000Z,991.97
2023-03-02T00:32:55.000Z,991.93
2023-03-02T00:37:47.000Z,991.98
2023-03-02T00:42:40.000Z,991.93
2023-03-02T00:47:35.000Z,991.93
2023-03-02T00:52:29.000Z,991.96
2023-03-02T00:57:23.000Z,992.04
2023-03-02T01:02:15.000Z,991.96
2023-03-02T01:07:09.000Z,991.98
2023-03-02T01:12:04.000Z,992.12
2023-03-02T01:16:58.000Z,991.98
2023-03-02T01:21:52.000Z,991.98
2023-03-02T01:26:47.000Z,991.96
2023-03-02T01:31:41.000Z,991.98
2023-03-02T01:36:35.000Z,991.94
2023-03-02T01:41:30.000Z,991.87
2023-03-02T01:46:23.000Z,991.77
2023-03-02T01:51:15.000Z,991.75
2023-03-02T01:56:09.000Z,991.67
2023-03-02T02:01:03.000Z,991.68
2023-03-02T02:05:57.000Z,991.64
2023-03-02T02:10:51.000Z,991.61
2023-03-02T02:15:46.000Z,991.55
2023-03-02T02:20:40.000Z,991.49
2023-03-02T02:25:34.000Z,991.45
2023-03-02T02:30:28.000Z,991.45
2023-03-02T02:35:25.000Z,991.32
2023-03-02T02:40:15.000Z,991.30
2023-03-02T02:45:09.000Z,991.25
2023-03-02T02:50:03.000Z,991.23
2023-03-02T02:54:57.000Z,991.15
2023-03-02T02:59:51.000Z,991.26
2023-03-02T03:04:45.000Z,991.28
2023-03-02T03:09:39.000Z,991.40
2023-03-02T03:14:33.000Z,991.28
2023-03-02T03:19:27.000Z,991.29
2023-03-02T03:24:22.000Z,991.13
2023-03-02T03:29:16.000Z,991.16
2023-03-02T03:34:10.000Z,991.07
2023-03-02T03:39:05.000Z,991.08
2023-03-02T03:43:59.000Z,991.14
2023-03-02T03:48:51.000Z,991.04
2023-03-02T03:53:45.000Z,991.17
2023-03-02T03:58:39.000Z,991.09
2023-03-02T04:03:33.000Z,991.15
2023-03-02T04:08:27.000Z,991.13
2023-03-02T04:13:21.000Z,991.16
2023-03-02T04:18:16.000Z,991.25
2023-03-02T04:23:13.000Z,991.23
2023-03-02T04:28:04.000Z,991.29
2023-03-02T04:32:58.000Z,991.26
2023-03-02T04:37:52.000Z,991.24
2023-03-02T04:42:45.000Z,991.29
2023-03-02T04:47:40.000Z,991.21
2023-03-02T04:52:34.000Z,991.21
2023-03-02T04:57:28.000Z,991.23
2023-03-02T05:02:22.000Z,991.19
2023-03-02T05:07:16.000Z,991.20
2023-03-02T05:12:10.000Z,991.09
2023-03-02T05:17:04.000Z,991.12
2023-03-02T05:21:59.000Z,991.16
2023-03-02T05:26:53.000Z,991.21
2023-03-02T05:31:47.000Z,991.25
2023-03-02T05:36:41.000Z,991.18
2023-03-02T05:41:35.000Z,991.22
2023-03-02T05:46:30.000Z,991.23
2023-03-02T05:51:24.000Z,991.28
2023-03-02T05:56:18.000Z,991.21
2023-03-02T06:01:10.000Z,991.21
2023-03-02T06:06:04.000Z,991.32
2023-03-02T06:10:58.000Z,991.44
2023-03-02T06:15:52.000Z,991.40
2023-03-02T06:20:46.000Z,991.39
2023-03-02T06:25:39.000Z,991.43
2023-03-02T06:30:33.000Z,991.46
2023-03-02T06:35:28.000Z,991.51
2023-03-02T06:40:22.000Z,991.50
2023-03-02T06:45:16.000Z,991.47
2023-03-02T06:50:10.000Z,991.44
2023-03-02T06:55:04.000Z,991.47
2023-03-02T06:59:59.000Z,991.60
2023-03-02T07:04:53.000Z,991.52
2023-03-02T07:09:47.000Z,991.58
2023-03-02T07:14:42.000Z,991.57
2023-03-02T07:19:36.000Z,991.58
2023-03-02T07:24:31.000Z,991.55
2023-03-02T07:29:25.000Z,991.47
2023-03-02T07:34:22.000Z,991.42
2023-03-02T07:39:13.000Z,991.57
2023-03-02T07:44:06.000Z,991.43
2023-03-02T07:49:01.000Z,991.50
2023-03-02T07:53:55.000Z,991.55
2023-03-02T07:58:49.000Z,991.50
2023-03-02T08:03:43.000Z,991.49
2023-03-02T08:08:38.000Z,991.52
2023-03-02T08:13:32.000Z,991.45
2023-03-02T08:18:27.000Z,991.47
2023-03-02T08:23:21.000Z,991.52
2023-03-02T08:28:15.000Z,991.41
2023-03-02T08:33:10.000Z,991.41
2023-03-02T08:38:03.000Z,991.35
2023-03-02T08:42:58.000Z,991.26
2023-03-02T08:47:52.000Z,991.14
2023-03-02T08:52:45.000Z,991.17
2023-03-02T08:57:40.000Z,991.11
2023-03-02T09:02:34.000Z,991.12
2023-03-02T09:07:29.000Z,991.09
2023-03-02T09:12:23.000Z,990.97
2023-03-02T09:17:19.000Z,991.01
2023-03-02T09:22:15.000Z,991.03
2023-03-02T09:27:10.000Z,991.03
2023-03-02T09:32:06.000Z,991.03
2023-03-02T09:37:01.000Z,990.99
2023-03-02T09:41:56.000Z,990.97
2023-03-02T09:46:49.000Z,991.02
2023-03-02T09:51:44.000Z,991.10
2023-03-02T09:56:39.000Z,991.12
2023-03-02T10:01:34.000Z,991.08
2023-03-02T10:06:29.000Z,990.98
2023-03-02T10:11:23.000Z,991.02
2023-03-02T10:16:18.000Z,991.00
2023-03-02T10:21:13.000Z,991.06
2023-03-02T10:26:06.000Z,990.94
2023-03-02T10:31:01.000Z,991.03
2023-03-02T10:35:56.000Z,990.86
2023-03-02T10:40:50.000Z,990.86
2023-03-02T10:45:45.000Z,990.92
2023-03-02T10:50:39.000Z,990.84
2023-03-02T10:55:33.000Z,990.90
2023-03-02T11:00:28.000Z,990.81
2023-03-02T11:05:21.000Z,990.83
2023-03-02T11:10:16.000Z,990.64
2023-03-02T11:15:12.000Z,990.63
2023-03-02T11:20:05.000Z,990.61
2023-03-02T11:25:00.000Z,990.62
2023-03-02T11:29:54.000Z,990.58
2023-03-02T11:34:48.000Z,990.48
2023-03-02T11:39:43.000Z,990.52
2023-03-02T11:44:37.000Z,990.49
2023-03-02T11:49:31.000Z,990.48
2023-03-02T11:54:25.000Z,990.43
2023-03-02T11:59:19.000Z,990.38
2023-03-02T12:04:12.000Z,990.33
2023-03-02T12:09:07.000Z,990.32
2023-03-02T12:14:01.000Z,990.34
2023-03-02T12:18:56.000Z,990.24
2023-03-02T12:23:50.000Z,990.19
2023-03-02T12:28:46.000Z,990.18
2023-03-02T12:33:40.000Z,990.14
2023-03-02T12:38:34.000Z,990.09
2023-03-02T12:43:29.000Z,990.03
2023-03-02T12:48:23.000Z,989.91
2023-03-02T12:53:17.000Z,989.79
2023-03-02T12:58:13.000Z,989.74
2023-03-02T13:03:07.000Z,989.73
2023-03-02T13:08:01.000Z,989.71
2023-03-02T13:12:56.000Z,989.50
2023-03-02T13:17:49.000Z,989.52
2023-03-02T13:22:43.000Z,989.42
2023-03-02T13:27:38.000Z,989.30
2023-03-02T13:32:32.000Z,989.16
2023-03-02T13:37:27.000Z,989.22
2023-03-02T13:42:21.000Z,989.16
2023-03-02T13:47:16.000Z,989.18
2023-03-02T13:52:11.000Z,989.21
2023-03-02T13:57:05.000Z,989.10
2023-03-02T14:01:59.000Z,989.11
2023-03-02T14:06:53.000Z,989.11
2023-03-02T14:11:48.000Z,989.17
2023-03-02T14:16:42.000Z,989.05
2023-03-02T14:21:36.000Z,989.01
2023-03-02T14:26:31.000Z,988.91
2023-03-02T14:31:25.000Z,988.94
2023-03-02T14:36:18.000Z,988.96
2023-03-02T14:41:12.000Z,988.89
2023-03-02T14:46:07.000Z,988.81
2023-03-02T14:51:01.000Z,988.79
2023-03-02T14:55:55.000Z,988.71
2023-03-02T15:00:48.000Z,988.80
2023-03-02T15:05:43.000Z,988.78
2023-03-02T15:10:37.000Z,988.80
2023-03-02T15:15:30.000Z,988.86
2023-03-02T15:20:24.000Z,988.93
2023-03-02T15:25:18.000Z,988.92
2023-03-02T15:30:11.000Z,988.92
2023-03-02T15:35:04.000Z,989.03
2023-03-02T15:39:58.000Z,988.90
2023-03-02T15:44:52.000Z,988.92
2023-03-02T15:49:45.000Z,988.89
2023-03-02T15:54:39.000Z,988.99
2023-03-02T15:59:33.000Z,989.03
2023-03-02T16:04:27.000Z,989.06
2023-03-02T16:09:19.000Z,989.08
2023-03-02T16:14:13.000Z,989.15
2023-03-02T16:19:07.000Z,989.16
2023-03-02T16:24:01.000Z,989.27
2023-03-02T16:28:55.000Z,989.25
2023-03-02T16:33:48.000Z,989.28
2023-03-02T16:38:42.000Z,989.22
2023-03-02T16:43:36.000Z,989.24
2023-03-02T16:48:29.000Z,989.30
2023-03-02T16:53:22.000Z,989.34
2023-03-02T16:58:16.000Z,989.34
2023-03-02T17:03:08.000Z,989.40
2023-03-02T17:08:02.000Z,989.40
2023-03-02T17:12:55.000Z,989.46
2023-03-02T17:17:48.000Z,989.57
2023-03-02T17:22:42.000Z,989.65
2023-03-02T17:27:34.000Z,989.72
2023-03-02T17:32:28.000Z,989.80
2023-03-02T17:37:21.000Z,989.88
2023-03-02T17:42:15.000Z,989.87
2023-03-02T17:47:09.000Z,989.80
2023-03-02T17:52:03.000Z,989.94
2023-03-02T17:56:57.000Z,990.06
2023-03-02T18:01:51.000Z,990.09
2023-03-02T18:06:44.000Z,990.20
2023-03-02T18:11:38.000Z,990.19
2023-03-02T18:16:33.000Z,990.23
2023-03-02T18:21:25.000Z,990.31
2023-03-02T18:26:20.000Z,990.33
2023-03-02T18:31:13.000Z,990.36
2023-03-02T18:36:08.000Z,990.44
2023-03-02T18:41:02.000Z,990.58
2023-03-02T18:45:55.000Z,990.50
2023-03-02T18:50:49.000Z,990.52
2023-03-02T18:55:43.000Z,990.48
2023-03-02T19:00:37.000Z,990.54
2023-03-02T19:05:31.000Z,990.56
2023-03-02T19:10:25.000Z,990.61
2023-03-02T19:15:19.000Z,990.55
2023-03-02T19:20:13.000Z,990.66
2023-03-02T19:25:07.000Z,990.65
2023-03-02T19:30:01.000Z,990.60
2023-03-02T19:34:54.000Z,990.63
2023-03-02T19:39:48.000Z,990.60
2023-03-02T19:44:42.000Z,990.66
2023-03-02T19:49:36.000Z,990.66
2023-03-02T19:54:30.000Z,990.64
2023-03-02T19:59:26.000Z,990.63
2023-03-02T20:04:16.000Z,990.55
2023-03-02T20:09:10.000Z,990.58
2023-03-02T20:14:04.000Z,990.64
2023-03-02T20:18:58.000Z,990.67
2023-03-02T20:23:52.000Z,990.74
2023-03-02T20:28:46.000Z,990.74
2023-03-02T20:33:41.000Z,990.76
2023-03-02T20:38:35.000Z,990.81
2023-03-02T20:43:29.000Z,990.83
2023-03-02T20:48:23.000Z,990.78
2023-03-02T20:53:17.000Z,990.82
2023-03-02T20:58:11.000Z,990.83
2023-03-02T21:03:05.000Z,990.85
2023-03-02T21:07:59.000Z,990.88
2023-03-02T21:12:53.000Z,990.93
2023-03-02T21:17:50.000Z,991.04
2023-03-02T21:22:40.000Z,991.09
2023-03-02T21:27:34.000Z,991.04
2023-03-02T21:32:27.000Z,991.09
2023-03-02T21:37:21.000Z,991.19
2023-03-02T21:42:15.000Z,991.09
2023-03-02T21:47:10.000Z,991.16
2023-03-02T21:52:03.000Z,991.17
2023-03-02T21:56:56.000Z,991.25
2023-03-02T22:01:50.000Z,991.18
2023-03-02T22:06:44.000Z,991.18
2023-03-02T22:11:37.000Z,991.19
2023-03-02T22:16:31.000Z,991.22
2023-03-02T22:21:25.000Z,991.29
2023-03-02T22:26:19.000Z,991.27
2023-03-02T22:31:13.000Z,991.31
2023-03-02T22:36:07.000Z,991.26
2023-03-02T22:41:01.000Z,991.29
2023-03-02T22:45:55.000Z,991.28
2023-03-02T22:50:49.000Z,991.24
2023-03-02T22:55:43.000Z,991.25
2023-03-02T23:00:37.000Z,991.16
2023-03-02T23:05:31.000Z,991.15
2023-03-02T23:10:24.000Z,991.09
2023-03-02T23:15:17.000Z,991.15
2023-03-02T23:20:11.000Z,991.07
2023-03-02T23:25:05.000Z,991.14
2023-03-02T23:29:58.000Z,991.15
2023-03-02T23:34:52.000Z,991.00
2023-03-02T23:39:47.000Z,991.03
2023-03-02T23:44:40.000Z,991.04
2023-03-02T23:49:34.000Z,991.13
2023-03-02T23:54:28.000Z,991.14
2023-03-02T23:59:21.000Z,991.13
